Time;durP1;ratioP1;P1;durP2;ratioP2;P2;SDS_P1;SDS_P2;PMS_P1;PMS_P2;Temp;Humidity;BMP_temperature;BMP_pressure;BME280_temperature;BME280_humidity;BME280_pressure;Samples;Min_cycle;Max_cycle;Signal;HPM_P1;HPM_P2
2024/01/30 00:01:15;;;;;;;;;;;;;;;;;;5094505;28;812;-64
2024/01/30 00:03:41;;;;;;;;;;;;;;;;;;5094427;28;1898;-65
2024/01/30 00:06:11;;;;;;;;;;;;;;;;;;5094029;28;1090;-64
2024/01/30 00:08:36;;;;;;;;;;;;;;;;;;5094007;28;1014;-64
2024/01/30 00:11:01;;;;;;;;;;;;;;;;;;5093866;28;1062;-64
2024/01/30 00:13:27;;;;;;;;;;;;;;;;;;5094265;28;824;-64
2024/01/30 00:15:52;;;;;;;;;;;;;;;;;;5094478;28;860;-64
2024/01/30 00:18:18;;;;;;;;;;;;;;;;;;5094317;28;971;-64
2024/01/30 00:20:43;;;;;;;;;;;;;;;;;;5076072;28;916;-64
2024/01/30 00:23:09;;;;;;;;;;;;;;;;;;5090368;28;1977;-64
2024/01/30 00:25:34;;;;;;;;;;;;;;;;;;5091738;28;1175;-64
2024/01/30 00:27:59;;;;;;;;;;;;;;;;;;5092147;28;1194;-64
2024/01/30 00:30:25;;;;;;;;;;;;;;;;;;5092370;28;1202;-64
2024/01/30 00:32:50;;;;;;;;;;;;;;;;;;5093839;28;829;-64
2024/01/30 00:35:15;;;;;;;;;;;;;;;;;;5093641;28;1014;-64
2024/01/30 00:37:40;;;;;;;;;;;;;;;;;;5093793;28;986;-64
2024/01/30 00:40:06;;;;;;;;;;;;;;;;;;5093912;28;892;-64
2024/01/30 00:42:31;;;;;;;;;;;;;;;;;;5094156;28;1878;-64
2024/01/30 00:44:57;;;;;;;;;;;;;;;;;;5093751;28;920;-64
2024/01/30 00:47:22;;;;;;;;;;;;;;;;;;5093471;28;1014;-64
2024/01/30 00:49:47;;;;;;;;;;;;;;;;;;5094049;28;1031;-64
2024/01/30 00:52:12;;;;;;;;;;;;;;;;;;5093634;28;758;-64
2024/01/30 00:54:37;;;;;;;;;;;;;;;;;;5093762;28;900;-64
2024/01/30 00:57:03;;;;;;;;;;;;;;;;;;5107059;28;908;-65
2024/01/30 00:59:28;;;;;;;;;;;;;;;;;;5114515;28;1006;-64
2024/01/30 01:01:53;;;;;;;;;;;;;;;;;;5113974;28;1894;-64
2024/01/30 01:04:21;;;;;;;;;;;;;;;;;;5114142;28;998;-65
2024/01/30 01:06:46;;;;;;;;;;;;;;;;;;5113925;28;892;-64
2024/01/30 01:09:12;;;;;;;;;;;;;;;;;;5114264;28;1034;-64
2024/01/30 01:11:37;;;;;;;;;;;;;;;;;;5113035;28;1446;-64
2024/01/30 01:14:03;;;;;;;;;;;;;;;;;;5112794;28;1349;-64
2024/01/30 01:16:28;;;;;;;;;;;;;;;;;;5114498;28;1049;-64
2024/01/30 01:18:53;;;;;;;;;;;;;;;;;;5114213;28;1050;-63
2024/01/30 01:21:18;;;;;;;;;;;;;;;;;;5115937;28;930;-64
2024/01/30 01:23:44;;;;;;;;;;;;;;;;;;5117929;28;1901;-64
2024/01/30 01:26:09;;;;;;;;;;;;;;;;;;5118188;28;840;-64
2024/01/30 01:28:35;;;;;;;;;;;;;;;;;;5118015;28;820;-64
2024/01/30 01:31:04;;;;;;;;;;;;;;;;;;5118204;28;923;-63
2024/01/30 01:33:30;;;;;;;;;;;;;;;;;;5117927;28;911;-64
2024/01/30 01:35:55;;;;;;;;;;;;;;;;;;5116352;28;1207;-63
2024/01/30 01:38:21;;;;;;;;;;;;;;;;;;5117581;28;812;-64
2024/01/30 01:40:46;;;;;;;;;;;;;;;;;;5117903;28;1006;-64
2024/01/30 01:43:11;;;;;;;;;;;;;;;;;;5117458;28;1909;-64
2024/01/30 01:45:36;;;;;;;;;;;;;;;;;;5117547;28;927;-64
2024/01/30 01:48:02;;;;;;;;;;;;;;;;;;5117663;28;880;-64
2024/01/30 01:50:27;;;;;;;;;;;;;;;;;;5116424;28;1862;-64
2024/01/30 01:52:53;;;;;;;;;;;;;;;;;;5117706;28;921;-64
2024/01/30 01:55:21;;;;;;;;;;;;;;;;;;5117369;27;934;-64
2024/01/30 01:57:47;;;;;;;;;;;;;;;;;;5117242;28;927;-64
2024/01/30 02:00:12;;;;;;;;;;;;;;;;;;5116016;28;1174;-63
2024/01/30 02:02:39;;;;;;;;;;;;;;;;;;5105819;28;1905;-64
2024/01/30 02:05:04;;;;;;;;;;;;;;;;;;5093333;28;1411;-63
2024/01/30 02:07:29;;;;;;;;;;;;;;;;;;5096807;28;963;-64
2024/01/30 02:09:55;;;;;;;;;;;;;;;;;;5096849;28;970;-64
2024/01/30 02:12:20;;;;;;;;;;;;;;;;;;5096984;28;907;-64
2024/01/30 02:14:46;;;;;;;;;;;;;;;;;;5096613;28;1007;-64
2024/01/30 02:17:11;;;;;;;;;;;;;;;;;;5097105;28;832;-64
2024/01/30 02:19:37;;;;;;;;;;;;;;;;;;5096358;28;856;-63
2024/01/30 02:22:02;;;;;;;;;;;;;;;;;;5096582;28;1897;-63
2024/01/30 02:24:27;;;;;;;;;;;;;;;;;;5095157;28;998;-64
2024/01/30 02:26:53;;;;;;;;;;;;;;;;;;5096493;28;836;-64
2024/01/30 02:29:18;;;;;;;;;;;;;;;;;;5096860;28;905;-64
2024/01/30 02:31:45;;;;;;;;;;;;;;;;;;5096151;28;959;-63
2024/01/30 02:34:11;;;;;;;;;;;;;;;;;;5094244;28;1230;-64
2024/01/30 02:36:36;;;;;;;;;;;;;;;;;;5096138;28;832;-63
2024/01/30 02:39:01;;;;;;;;;;;;;;;;;;5097073;28;946;-64
2024/01/30 02:41:26;;;;;;;;;;;;;;;;;;5096659;28;954;-64
2024/01/30 02:43:51;;;;;;;;;;;;;;;;;;5096498;28;1905;-64
2024/01/30 02:46:17;;;;;;;;;;;;;;;;;;5096787;28;967;-64
2024/01/30 02:48:42;;;;;;;;;;;;;;;;;;5095326;28;836;-64
2024/01/30 02:51:07;;;;;;;;;;;;;;;;;;5096412;28;927;-64
2024/01/30 02:53:32;;;;;;;;;;;;;;;;;;5096893;28;812;-64
2024/01/30 02:55:57;;;;;;;;;;;;;;;;;;5096145;28;1026;-63
2024/01/30 02:58:23;;;;;;;;;;;;;;;;;;5096106;28;876;-64
2024/01/30 03:00:48;;;;;;;;;;;;;;;;;;5096010;28;872;-64
2024/01/30 03:03:13;;;;;;;;;;;;;;;;;;5095667;28;1910;-63
2024/01/30 03:05:38;;;;;;;;;;;;;;;;;;5095736;28;962;-64
2024/01/30 03:08:04;;;;;;;;;;;;;;;;;;5095935;28;911;-64
2024/01/30 03:10:29;;;;;;;;;;;;;;;;;;5095664;28;999;-64
2024/01/30 03:12:54;;;;;;;;;;;;;;;;;;5095698;28;825;-64
2024/01/30 03:15:20;;;;;;;;;;;;;;;;;;5095873;28;998;-64
2024/01/30 03:17:46;;;;;;;;;;;;;;;;;;5095328;28;939;-64
2024/01/30 03:20:11;;;;;;;;;;;;;;;;;;5077344;28;1310;-64
2024/01/30 03:22:36;;;;;;;;;;;;;;;;;;5095254;28;1964;-69
2024/01/30 03:25:02;;;;;;;;;;;;;;;;;;5095142;28;738;-68
2024/01/30 03:27:27;;;;;;;;;;;;;;;;;;5095081;28;817;-68
2024/01/30 03:29:52;;;;;;;;;;;;;;;;;;5095466;28;1046;-64
2024/01/30 03:32:17;;;;;;;;;;;;;;;;;;5095292;28;845;-64
2024/01/30 03:34:42;;;;;;;;;;;;;;;;;;5095023;28;821;-64
2024/01/30 03:37:08;;;;;;;;;;;;;;;;;;5094836;28;784;-64
2024/01/30 03:39:33;;;;;;;;;;;;;;;;;;5077088;28;856;-64
2024/01/30 03:41:58;;;;;;;;;;;;;;;;;;5094893;28;1914;-64
2024/01/30 03:44:24;;;;;;;;;;;;;;;;;;5094851;28;844;-64
2024/01/30 03:46:49;;;;;;;;;;;;;;;;;;5095185;28;833;-65
2024/01/30 03:49:14;;;;;;;;;;;;;;;;;;5095526;28;785;-63
2024/01/30 03:51:40;;;;;;;;;;;;;;;;;;5094380;28;899;-63
2024/01/30 03:54:05;;;;;;;;;;;;;;;;;;5093538;28;1269;-64
2024/01/30 03:56:30;;;;;;;;;;;;;;;;;;5091649;28;1151;-64
2024/01/30 03:58:56;;;;;;;;;;;;;;;;;;5092238;28;1100;-64
2024/01/30 04:01:22;;;;;;;;;;;;;;;;;;5092657;28;1155;-64
2024/01/30 04:03:47;;;;;;;;;;;;;;;;;;5091281;28;1906;-64
2024/01/30 04:06:12;;;;;;;;;;;;;;;;;;5091380;28;1064;-64
2024/01/30 04:08:37;;;;;;;;;;;;;;;;;;5091879;28;1159;-64
2024/01/30 04:11:04;;;;;;;;;;;;;;;;;;5092962;28;1139;-64
2024/01/30 04:13:29;;;;;;;;;;;;;;;;;;5076219;28;1044;-64
2024/01/30 04:15:55;;;;;;;;;;;;;;;;;;5094711;28;832;-64
2024/01/30 04:18:20;;;;;;;;;;;;;;;;;;5094641;28;770;-64
2024/01/30 04:20:45;;;;;;;;;;;;;;;;;;5076318;28;758;-64
2024/01/30 04:23:10;;;;;;;;;;;;;;;;;;5094437;28;1906;-64
2024/01/30 04:25:36;;;;;;;;;;;;;;;;;;5076238;28;860;-64
2024/01/30 04:28:01;;;;;;;;;;;;;;;;;;5094862;28;899;-64
2024/01/30 04:30:26;;;;;;;;;;;;;;;;;;5094587;28;995;-64
2024/01/30 04:32:51;;;;;;;;;;;;;;;;;;5094336;28;895;-64
2024/01/30 04:35:17;;;;;;;;;;;;;;;;;;5094265;28;1018;-64
2024/01/30 04:37:42;;;;;;;;;;;;;;;;;;5094214;28;939;-64
2024/01/30 04:40:08;;;;;;;;;;;;;;;;;;5094512;28;1117;-64
2024/01/30 04:42:33;;;;;;;;;;;;;;;;;;5094595;28;1958;-64
2024/01/30 04:44:58;;;;;;;;;;;;;;;;;;5093860;28;816;-64
2024/01/30 04:47:23;;;;;;;;;;;;;;;;;;5094100;28;797;-64
2024/01/30 04:49:50;;;;;;;;;;;;;;;;;;5093899;28;990;-64
2024/01/30 04:52:15;;;;;;;;;;;;;;;;;;5075900;28;853;-64
2024/01/30 04:54:40;;;;;;;;;;;;;;;;;;5093402;28;983;-64
2024/01/30 04:57:09;;;;;;;;;;;;;;;;;;5093375;28;1030;-64
2024/01/30 04:59:34;;;;;;;;;;;;;;;;;;5093789;28;895;-63
2024/01/30 05:02:00;;;;;;;;;;;;;;;;;;5093278;28;1897;-64
2024/01/30 05:04:25;;;;;;;;;;;;;;;;;;5071716;28;1262;-64
2024/01/30 05:06:50;;;;;;;;;;;;;;;;;;5089374;28;1135;-64
2024/01/30 05:09:15;;;;;;;;;;;;;;;;;;5090943;28;1264;-64
2024/01/30 05:11:41;;;;;;;;;;;;;;;;;;5090642;28;1210;-64
2024/01/30 05:14:06;;;;;;;;;;;;;;;;;;5074988;28;1374;-64
2024/01/30 05:16:32;;;;;;;;;;;;;;;;;;5075167;28;1254;-64
2024/01/30 05:18:57;;;;;;;;;;;;;;;;;;5093681;28;959;-64
2024/01/30 05:21:22;;;;;;;;;;;;;;;;;;5075543;28;872;-64
2024/01/30 05:23:48;;;;;;;;;;;;;;;;;;5093187;28;1918;-64
2024/01/30 05:26:13;;;;;;;;;;;;;;;;;;5093520;28;1038;-63
2024/01/30 05:28:38;;;;;;;;;;;;;;;;;;5093208;28;865;-63
2024/01/30 05:31:03;;;;;;;;;;;;;;;;;;5093409;28;995;-63
2024/01/30 05:33:29;;;;;;;;;;;;;;;;;;5093265;28;943;-64
2024/01/30 05:35:54;;;;;;;;;;;;;;;;;;5093403;28;872;-63
2024/01/30 05:38:19;;;;;;;;;;;;;;;;;;5093503;28;825;-64
2024/01/30 05:40:45;;;;;;;;;;;;;;;;;;5093807;28;880;-63
2024/01/30 05:43:10;;;;;;;;;;;;;;;;;;5093990;28;1889;-63
2024/01/30 05:45:36;;;;;;;;;;;;;;;;;;5093313;28;895;-63
2024/01/30 05:48:01;;;;;;;;;;;;;;;;;;5093811;28;980;-63
2024/01/30 05:50:26;;;;;;;;;;;;;;;;;;5093679;28;916;-64
2024/01/30 05:52:52;;;;;;;;;;;;;;;;;;5094277;28;840;-63
2024/01/30 05:55:17;;;;;;;;;;;;;;;;;;5093431;28;980;-63
2024/01/30 05:57:42;;;;;;;;;;;;;;;;;;5093619;28;977;-64
2024/01/30 06:00:08;;;;;;;;;;;;;;;;;;5076067;28;1136;-63
2024/01/30 06:02:33;;;;;;;;;;;;;;;;;;5094603;28;1938;-63
2024/01/30 06:04:59;;;;;;;;;;;;;;;;;;5094343;28;828;-67
2024/01/30 06:07:24;;;;;;;;;;;;;;;;;;5094456;28;848;-68
2024/01/30 06:09:49;;;;;;;;;;;;;;;;;;5097763;28;876;-68
2024/01/30 06:12:14;;;;;;;;;;;;;;;;;;5080152;28;1195;-68
2024/01/30 06:14:42;;;;;;;;;;;;;;;;;;5098153;28;801;-68
2024/01/30 06:17:07;;;;;;;;;;;;;;;;;;5097857;28;1008;-68
2024/01/30 06:19:32;;;;;;;;;;;;;;;;;;5079772;28;1183;-68
2024/01/30 06:21:57;;;;;;;;;;;;;;;;;;5097436;28;887;-69
2024/01/30 06:24:23;;;;;;;;;;;;;;;;;;5097881;28;1902;-68
2024/01/30 06:26:48;;;;;;;;;;;;;;;;;;5097197;28;911;-68
2024/01/30 06:29:14;;;;;;;;;;;;;;;;;;5079745;28;1430;-64
2024/01/30 06:31:41;;;;;;;;;;;;;;;;;;5097206;28;892;-64
2024/01/30 06:34:06;;;;;;;;;;;;;;;;;;5097855;28;974;-64
2024/01/30 06:36:31;;;;;;;;;;;;;;;;;;5096418;28;1031;-64
2024/01/30 06:38:56;;;;;;;;;;;;;;;;;;5096135;28;1026;-64
2024/01/30 06:41:22;;;;;;;;;;;;;;;;;;5095898;28;1016;-62
2024/01/30 06:43:47;;;;;;;;;;;;;;;;;;5095829;28;1910;-64
2024/01/30 06:46:12;;;;;;;;;;;;;;;;;;5095674;28;880;-64
2024/01/30 06:48:40;;;;;;;;;;;;;;;;;;5095877;28;888;-65
2024/01/30 06:51:05;;;;;;;;;;;;;;;;;;5095609;28;817;-64
2024/01/30 06:53:30;;;;;;;;;;;;;;;;;;5095829;28;915;-64
2024/01/30 06:55:55;;;;;;;;;;;;;;;;;;5095309;28;1105;-64
2024/01/30 06:58:21;;;;;;;;;;;;;;;;;;5077612;28;844;-65
2024/01/30 07:00:46;;;;;;;;;;;;;;;;;;5096219;28;880;-63
2024/01/30 07:03:11;;;;;;;;;;;;;;;;;;5076395;28;1905;-62
2024/01/30 07:05:36;;;;;;;;;;;;;;;;;;5093062;28;1170;-62
2024/01/30 07:08:02;;;;;;;;;;;;;;;;;;5093122;28;1148;-62
2024/01/30 07:10:27;;;;;;;;;;;;;;;;;;5074917;28;1170;-63
2024/01/30 07:12:52;;;;;;;;;;;;;;;;;;5075649;28;1385;-63
2024/01/30 07:15:20;;;;;;;;;;;;;;;;;;5095457;28;915;-63
2024/01/30 07:17:45;;;;;;;;;;;;;;;;;;5095287;28;852;-63
2024/01/30 07:20:11;;;;;;;;;;;;;;;;;;5095162;28;864;-63
2024/01/30 07:22:36;;;;;;;;;;;;;;;;;;5095207;28;1941;-63
2024/01/30 07:25:01;;;;;;;;;;;;;;;;;;5095069;28;896;-63
2024/01/30 07:27:26;;;;;;;;;;;;;;;;;;5095066;28;999;-63
2024/01/30 07:29:52;;;;;;;;;;;;;;;;;;5094869;28;1362;-64
2024/01/30 07:32:18;;;;;;;;;;;;;;;;;;5095141;28;899;-64
2024/01/30 07:34:43;;;;;;;;;;;;;;;;;;5093618;28;938;-63
2024/01/30 07:37:09;;;;;;;;;;;;;;;;;;5094913;28;902;-64
2024/01/30 07:39:34;;;;;;;;;;;;;;;;;;5094906;28;797;-63
2024/01/30 07:42:00;;;;;;;;;;;;;;;;;;5077302;28;1222;-63
2024/01/30 07:44:25;;;;;;;;;;;;;;;;;;5076516;28;1955;-63
2024/01/30 07:46:50;;;;;;;;;;;;;;;;;;5094925;28;903;-63
2024/01/30 07:49:16;;;;;;;;;;;;;;;;;;5076283;28;1426;-63
2024/01/30 07:51:41;;;;;;;;;;;;;;;;;;5092213;28;1234;-63
2024/01/30 07:54:12;;;;;;;;;;;;;;;;;;5093013;28;1190;-63
2024/01/30 07:56:38;;;;;;;;;;;;;;;;;;5087486;28;1191;-63
2024/01/30 07:59:03;;;;;;;;;;;;;;;;;;5092426;28;1163;-63
2024/01/30 08:01:28;;;;;;;;;;;;;;;;;;5092621;28;1099;-63
2024/01/30 08:03:53;;;;;;;;;;;;;;;;;;5094540;28;1898;-62
2024/01/30 08:06:19;;;;;;;;;;;;;;;;;;5094176;28;872;-62
2024/01/30 08:08:44;;;;;;;;;;;;;;;;;;5075387;28;1195;-62
2024/01/30 08:11:10;;;;;;;;;;;;;;;;;;5094362;28;840;-69
2024/01/30 08:13:35;;;;;;;;;;;;;;;;;;5076101;28;1433;-68
2024/01/30 08:16:00;;;;;;;;;;;;;;;;;;5094526;28;832;-69
2024/01/30 08:18:26;;;;;;;;;;;;;;;;;;5094659;28;899;-69
2024/01/30 08:20:51;;;;;;;;;;;;;;;;;;5093850;28;805;-69
2024/01/30 08:23:16;;;;;;;;;;;;;;;;;;5094091;28;1974;-69
2024/01/30 08:25:41;;;;;;;;;;;;;;;;;;5093804;28;1054;-68
2024/01/30 08:28:07;;;;;;;;;;;;;;;;;;5093631;28;1010;-69
2024/01/30 08:30:32;;;;;;;;;;;;;;;;;;5093576;28;829;-69
2024/01/30 08:32:57;;;;;;;;;;;;;;;;;;5093847;28;856;-69
2024/01/30 08:35:23;;;;;;;;;;;;;;;;;;5093778;28;935;-69
2024/01/30 08:37:48;;;;;;;;;;;;;;;;;;5093765;28;999;-69
2024/01/30 08:40:13;;;;;;;;;;;;;;;;;;5075917;28;1379;-69
2024/01/30 08:42:38;;;;;;;;;;;;;;;;;;5094283;28;1969;-62
2024/01/30 08:45:04;;;;;;;;;;;;;;;;;;5093825;28;829;-62
2024/01/30 08:47:30;;;;;;;;;;;;;;;;;;5094021;28;901;-62
2024/01/30 08:49:56;;;;;;;;;;;;;;;;;;5093882;28;825;-63
2024/01/30 08:52:21;;;;;;;;;;;;;;;;;;5093793;28;856;-63
2024/01/30 08:54:46;;;;;;;;;;;;;;;;;;5093580;28;1042;-61
2024/01/30 08:57:11;;;;;;;;;;;;;;;;;;5093400;28;982;-61
2024/01/30 08:59:36;;;;;;;;;;;;;;;;;;5075335;28;983;-62
2024/01/30 09:02:03;;;;;;;;;;;;;;;;;;5075418;28;872;-62
2024/01/30 09:04:28;;;;;;;;;;;;;;;;;;5093833;28;1950;-62
2024/01/30 09:06:53;;;;;;;;;;;;;;;;;;5075147;28;1414;-62
2024/01/30 09:09:19;;;;;;;;;;;;;;;;;;5093350;28;888;-62
2024/01/30 09:11:44;;;;;;;;;;;;;;;;;;5093390;28;872;-62
2024/01/30 09:14:09;;;;;;;;;;;;;;;;;;5093557;28;932;-68
2024/01/30 09:16:34;;;;;;;;;;;;;;;;;;5075691;28;697;-70
2024/01/30 09:18:59;;;;;;;;;;;;;;;;;;5093918;28;975;-69
2024/01/30 09:21:25;;;;;;;;;;;;;;;;;;5093292;28;1042;-69
2024/01/30 09:23:51;;;;;;;;;;;;;;;;;;5093943;28;1961;-62
2024/01/30 09:26:16;;;;;;;;;;;;;;;;;;5093667;28;757;-63
2024/01/30 09:28:42;;;;;;;;;;;;;;;;;;5093315;28;986;-63
2024/01/30 09:31:11;;;;;;;;;;;;;;;;;;5093558;28;847;-62
2024/01/30 09:33:36;;;;;;;;;;;;;;;;;;5093705;28;1020;-62
2024/01/30 09:36:01;;;;;;;;;;;;;;;;;;5093131;28;923;-63
2024/01/30 09:38:26;;;;;;;;;;;;;;;;;;5093633;28;857;-63
2024/01/30 09:40:54;;;;;;;;;;;;;;;;;;5093853;28;1037;-63
2024/01/30 09:43:22;;;;;;;;;;;;;;;;;;5097611;28;1971;-62
2024/01/30 09:45:49;;;;;;;;;;;;;;;;;;5097631;28;956;-62
2024/01/30 09:48:15;;;;;;;;;;;;;;;;;;5079738;28;821;-63
2024/01/30 09:50:40;;;;;;;;;;;;;;;;;;5079351;28;1225;-63
2024/01/30 09:53:06;;;;;;;;;;;;;;;;;;5097308;28;1003;-62
2024/01/30 09:55:32;;;;;;;;;;;;;;;;;;5097163;28;1045;-62
2024/01/30 09:57:57;;;;;;;;;;;;;;;;;;5097049;28;816;-63
2024/01/30 10:00:27;;;;;;;;;;;;;;;;;;5096936;28;931;-62
2024/01/30 10:02:52;;;;;;;;;;;;;;;;;;5097120;28;1906;-62
2024/01/30 10:05:18;;;;;;;;;;;;;;;;;;5097424;28;1035;-63
2024/01/30 10:07:52;;;;;;;;;;;;;;;;;;5096621;28;908;-63
2024/01/30 10:10:18;;;;;;;;;;;;;;;;;;5096833;28;820;-62
2024/01/30 10:12:43;;;;;;;;;;;;;;;;;;5096420;28;915;-63
2024/01/30 10:15:08;;;;;;;;;;;;;;;;;;5095757;28;721;-62
2024/01/30 10:17:37;;;;;;;;;;;;;;;;;;5096374;28;856;-62
2024/01/30 10:20:04;;;;;;;;;;;;;;;;;;5096421;28;1007;-62
2024/01/30 10:22:29;;;;;;;;;;;;;;;;;;5096204;28;1898;-63
2024/01/30 10:24:55;;;;;;;;;;;;;;;;;;5096605;28;817;-63
2024/01/30 10:27:24;;;;;;;;;;;;;;;;;;5096379;28;994;-63
2024/01/30 10:29:49;;;;;;;;;;;;;;;;;;5096653;28;1033;-63
2024/01/30 10:32:15;;;;;;;;;;;;;;;;;;5096436;28;860;-61
2024/01/30 10:34:40;;;;;;;;;;;;;;;;;;5096366;28;951;-63
2024/01/30 10:37:12;;;;;;;;;;;;;;;;;;5095204;28;852;-63
2024/01/30 10:39:38;;;;;;;;;;;;;;;;;;5095999;28;908;-63
2024/01/30 10:42:05;;;;;;;;;;;;;;;;;;5078260;28;861;-63
2024/01/30 10:44:34;;;;;;;;;;;;;;;;;;5096455;28;1898;-63
2024/01/30 10:47:03;;;;;;;;;;;;;;;;;;5096497;28;1059;-63
2024/01/30 10:49:28;;;;;;;;;;;;;;;;;;5096248;28;943;-63
2024/01/30 10:51:55;;;;;;;;;;;;;;;;;;5096369;28;801;-62
2024/01/30 10:54:20;;;;;;;;;;;;;;;;;;5095257;28;1018;-62
2024/01/30 10:56:46;;;;;;;;;;;;;;;;;;5095740;28;990;-63
2024/01/30 10:59:13;;;;;;;;;;;;;;;;;;5095881;28;892;-62
2024/01/30 11:01:38;;;;;;;;;;;;;;;;;;5095793;28;936;-62
2024/01/30 11:04:04;;;;;;;;;;;;;;;;;;5095958;28;1977;-62
2024/01/30 11:06:29;;;;;;;;;;;;;;;;;;5096721;28;778;-62
2024/01/30 11:09:03;;;;;;;;;;;;;;;;;;5095204;28;877;-61
2024/01/30 11:11:28;;;;;;;;;;;;;;;;;;5093936;28;793;-62
2024/01/30 11:13:54;;;;;;;;;;;;;;;;;;5094687;28;828;-62
2024/01/30 11:16:19;;;;;;;;;;;;;;;;;;5095369;28;828;-62
2024/01/30 11:18:49;;;;;;;;;;;;;;;;;;5095350;28;903;-62
2024/01/30 11:21:15;;;;;;;;;;;;;;;;;;5095512;28;848;-62
2024/01/30 11:23:40;;;;;;;;;;;;;;;;;;5095035;28;1902;-62
2024/01/30 11:26:05;;;;;;;;;;;;;;;;;;5095391;28;1146;-62
2024/01/30 11:28:32;;;;;;;;;;;;;;;;;;5077019;28;1322;-62
2024/01/30 11:31:09;;;;;;;;;;;;;;;;;;5095447;28;999;-62
2024/01/30 11:33:35;;;;;;;;;;;;;;;;;;5095320;28;879;-63
2024/01/30 11:36:00;;;;;;;;;;;;;;;;;;5094908;28;935;-62
2024/01/30 11:38:29;;;;;;;;;;;;;;;;;;5060555;28;1007;-62
2024/01/30 11:40:55;;;;;;;;;;;;;;;;;;5095160;28;899;-62
2024/01/30 11:43:20;;;;;;;;;;;;;;;;;;5094937;28;1902;-62
2024/01/30 11:45:46;;;;;;;;;;;;;;;;;;5094853;28;994;-62
2024/01/30 11:48:12;;;;;;;;;;;;;;;;;;5095341;28;926;-62
2024/01/30 11:50:38;;;;;;;;;;;;;;;;;;5095019;28;982;-62
2024/01/30 11:53:04;;;;;;;;;;;;;;;;;;5095711;28;821;-62
2024/01/30 11:55:30;;;;;;;;;;;;;;;;;;5095487;28;1047;-62
2024/01/30 11:57:56;;;;;;;;;;;;;;;;;;5094895;28;990;-62
2024/01/30 12:00:21;;;;;;;;;;;;;;;;;;5095223;28;817;-62
2024/01/30 12:02:50;;;;;;;;;;;;;;;;;;5094996;28;1914;-62
2024/01/30 12:05:15;;;;;;;;;;;;;;;;;;5094338;28;804;-62
2024/01/30 12:07:43;;;;;;;;;;;;;;;;;;5094674;28;1105;-62
2024/01/30 12:10:09;;;;;;;;;;;;;;;;;;5094342;28;947;-62
2024/01/30 12:12:35;;;;;;;;;;;;;;;;;;5094353;28;809;-62
2024/01/30 12:15:00;;;;;;;;;;;;;;;;;;5094263;28;803;-62
2024/01/30 12:17:32;;;;;;;;;;;;;;;;;;5093814;28;809;-62
2024/01/30 12:20:11;;;;;;;;;;;;;;;;;;5093887;28;864;-62
2024/01/30 12:22:40;;;;;;;;;;;;;;;;;;5094158;28;1961;-61
2024/01/30 12:25:08;;;;;;;;;;;;;;;;;;5093944;28;844;-62
2024/01/30 12:27:33;;;;;;;;;;;;;;;;;;5094765;28;856;-62
2024/01/30 12:29:58;;;;;;;;;;;;;;;;;;5093994;28;887;-61
2024/01/30 12:32:24;;;;;;;;;;;;;;;;;;5094015;28;1003;-61
2024/01/30 12:34:49;;;;;;;;;;;;;;;;;;5093583;28;955;-62
2024/01/30 12:37:19;;;;;;;;;;;;;;;;;;5094098;28;982;-62
2024/01/30 12:39:44;;;;;;;;;;;;;;;;;;5074920;28;1413;-62
2024/01/30 12:42:10;;;;;;;;;;;;;;;;;;5093477;28;880;-61
2024/01/30 12:44:35;;;;;;;;;;;;;;;;;;5093613;28;1894;-62
2024/01/30 12:47:02;;;;;;;;;;;;;;;;;;5093971;28;817;-63
2024/01/30 12:49:28;;;;;;;;;;;;;;;;;;5093669;28;963;-62
2024/01/30 12:51:53;;;;;;;;;;;;;;;;;;5093655;28;882;-62
2024/01/30 12:54:18;;;;;;;;;;;;;;;;;;5093610;28;809;-63
2024/01/30 12:56:43;;;;;;;;;;;;;;;;;;5093082;28;986;-62
2024/01/30 12:59:08;;;;;;;;;;;;;;;;;;5093324;28;967;-62
2024/01/30 13:01:34;;;;;;;;;;;;;;;;;;5075405;28;1192;-62
2024/01/30 13:03:59;;;;;;;;;;;;;;;;;;5075427;28;1959;-62
2024/01/30 13:06:24;;;;;;;;;;;;;;;;;;5093377;28;900;-62
2024/01/30 13:08:50;;;;;;;;;;;;;;;;;;5093558;28;883;-62
2024/01/30 13:11:15;;;;;;;;;;;;;;;;;;5074883;28;1381;-62
2024/01/30 13:13:41;;;;;;;;;;;;;;;;;;5093172;28;821;-62
2024/01/30 13:16:06;;;;;;;;;;;;;;;;;;5093212;28;836;-62
2024/01/30 13:18:31;;;;;;;;;;;;;;;;;;5093149;28;832;-63
2024/01/30 13:20:57;;;;;;;;;;;;;;;;;;5093630;28;935;-62
2024/01/30 13:23:22;;;;;;;;;;;;;;;;;;5093653;28;1910;-63
2024/01/30 13:25:47;;;;;;;;;;;;;;;;;;5093306;28;991;-63
2024/01/30 13:28:12;;;;;;;;;;;;;;;;;;5093532;28;837;-63
2024/01/30 13:30:38;;;;;;;;;;;;;;;;;;5093396;28;895;-63
2024/01/30 13:33:03;;;;;;;;;;;;;;;;;;5075410;28;899;-63
2024/01/30 13:35:28;;;;;;;;;;;;;;;;;;5093421;28;896;-63
2024/01/30 13:37:53;;;;;;;;;;;;;;;;;;5075267;28;1569;-62
2024/01/30 13:40:19;;;;;;;;;;;;;;;;;;5092623;28;812;-62
2024/01/30 13:42:44;;;;;;;;;;;;;;;;;;5093291;28;1964;-62
2024/01/30 13:45:12;;;;;;;;;;;;;;;;;;5075975;28;1183;-62
2024/01/30 13:47:38;;;;;;;;;;;;;;;;;;5093609;28;939;-62
2024/01/30 13:50:03;;;;;;;;;;;;;;;;;;5075727;28;864;-62
2024/01/30 13:52:28;;;;;;;;;;;;;;;;;;5093589;28;1006;-62
2024/01/30 13:54:53;;;;;;;;;;;;;;;;;;5091898;28;836;-62
2024/01/30 13:57:19;;;;;;;;;;;;;;;;;;5084862;28;950;-62
2024/01/30 13:59:44;;;;;;;;;;;;;;;;;;5091837;28;868;-62
2024/01/30 14:02:10;;;;;;;;;;;;;;;;;;5091417;28;801;-61
2024/01/30 14:04:37;;;;;;;;;;;;;;;;;;5091028;28;1906;-62
2024/01/30 14:07:02;;;;;;;;;;;;;;;;;;5091584;28;800;-63
2024/01/30 14:09:27;;;;;;;;;;;;;;;;;;5092373;28;865;-62
2024/01/30 14:11:52;;;;;;;;;;;;;;;;;;5092596;28;1052;-62
2024/01/30 14:14:18;;;;;;;;;;;;;;;;;;5091136;28;1234;-61
2024/01/30 14:16:43;;;;;;;;;;;;;;;;;;5092607;28;829;-62
2024/01/30 14:19:08;;;;;;;;;;;;;;;;;;5091388;28;888;-62
2024/01/30 14:21:34;;;;;;;;;;;;;;;;;;5092593;28;892;-62
2024/01/30 14:23:59;;;;;;;;;;;;;;;;;;5091079;28;1889;-62
2024/01/30 14:26:24;;;;;;;;;;;;;;;;;;5093124;28;1034;-62
2024/01/30 14:28:49;;;;;;;;;;;;;;;;;;5093240;28;895;-63
2024/01/30 14:31:16;;;;;;;;;;;;;;;;;;5094916;28;964;-62
2024/01/30 14:33:42;;;;;;;;;;;;;;;;;;5096296;28;880;-62
2024/01/30 14:36:08;;;;;;;;;;;;;;;;;;5095807;28;868;-62
2024/01/30 14:38:34;;;;;;;;;;;;;;;;;;5096460;28;852;-62
2024/01/30 14:41:00;;;;;;;;;;;;;;;;;;5094797;28;1329;-62
2024/01/30 14:43:25;;;;;;;;;;;;;;;;;;5095845;28;1898;-62
2024/01/30 14:45:52;;;;;;;;;;;;;;;;;;5095938;28;907;-63
2024/01/30 14:48:18;;;;;;;;;;;;;;;;;;5094795;28;1520;-62
2024/01/30 14:50:43;;;;;;;;;;;;;;;;;;5094870;28;1357;-63
2024/01/30 14:53:08;;;;;;;;;;;;;;;;;;5096061;28;813;-62
2024/01/30 14:55:33;;;;;;;;;;;;;;;;;;5095653;28;1014;-62
2024/01/30 14:57:59;;;;;;;;;;;;;;;;;;5095561;28;986;-63
2024/01/30 15:00:24;;;;;;;;;;;;;;;;;;5095444;28;796;-63
2024/01/30 15:02:50;;;;;;;;;;;;;;;;;;5095463;28;1913;-62
2024/01/30 15:05:15;;;;;;;;;;;;;;;;;;5095082;28;1011;-62
2024/01/30 15:07:40;;;;;;;;;;;;;;;;;;5095232;28;903;-63
2024/01/30 15:10:06;;;;;;;;;;;;;;;;;;5095843;28;986;-63
2024/01/30 15:12:31;;;;;;;;;;;;;;;;;;5095716;28;836;-63
2024/01/30 15:14:56;;;;;;;;;;;;;;;;;;5095092;28;999;-63
2024/01/30 15:17:21;;;;;;;;;;;;;;;;;;5077357;28;1171;-62
2024/01/30 15:19:47;;;;;;;;;;;;;;;;;;5095148;28;884;-63
2024/01/30 15:22:13;;;;;;;;;;;;;;;;;;5095371;28;833;-63
2024/01/30 15:24:38;;;;;;;;;;;;;;;;;;5095074;28;1972;-64
2024/01/30 15:27:03;;;;;;;;;;;;;;;;;;5095293;28;873;-63
2024/01/30 15:29:29;;;;;;;;;;;;;;;;;;5094930;28;828;-64
2024/01/30 15:31:54;;;;;;;;;;;;;;;;;;5094820;28;832;-63
2024/01/30 15:34:20;;;;;;;;;;;;;;;;;;5076699;28;1437;-63
2024/01/30 15:36:45;;;;;;;;;;;;;;;;;;5094782;28;856;-63
2024/01/30 15:39:11;;;;;;;;;;;;;;;;;;5095001;28;1082;-63
2024/01/30 15:41:36;;;;;;;;;;;;;;;;;;5094281;28;805;-62
2024/01/30 15:44:02;;;;;;;;;;;;;;;;;;5094532;28;1890;-63
2024/01/30 15:46:28;;;;;;;;;;;;;;;;;;5094683;28;880;-63
2024/01/30 15:48:53;;;;;;;;;;;;;;;;;;5094511;28;837;-63
2024/01/30 15:51:18;;;;;;;;;;;;;;;;;;5094425;28;983;-63
2024/01/30 15:53:44;;;;;;;;;;;;;;;;;;5094895;28;849;-62
2024/01/30 15:56:09;;;;;;;;;;;;;;;;;;5094346;28;943;-63
2024/01/30 15:58:34;;;;;;;;;;;;;;;;;;5094342;28;935;-63
2024/01/30 16:00:59;;;;;;;;;;;;;;;;;;5094646;28;899;-63
2024/01/30 16:03:25;;;;;;;;;;;;;;;;;;5076525;28;1906;-63
2024/01/30 16:05:50;;;;;;;;;;;;;;;;;;5094517;28;917;-62
2024/01/30 16:08:15;;;;;;;;;;;;;;;;;;5094616;28;1030;-62
2024/01/30 16:10:41;;;;;;;;;;;;;;;;;;5094118;28;770;-62
2024/01/30 16:13:06;;;;;;;;;;;;;;;;;;5076166;28;857;-62
2024/01/30 16:15:31;;;;;;;;;;;;;;;;;;5093484;28;958;-62
2024/01/30 16:17:56;;;;;;;;;;;;;;;;;;5093797;28;830;-62
2024/01/30 16:20:22;;;;;;;;;;;;;;;;;;5094591;28;809;-62
2024/01/30 16:22:48;;;;;;;;;;;;;;;;;;5094150;28;1963;-62
2024/01/30 16:25:17;;;;;;;;;;;;;;;;;;5094488;28;920;-62
2024/01/30 16:27:42;;;;;;;;;;;;;;;;;;5094672;28;849;-63
2024/01/30 16:30:09;;;;;;;;;;;;;;;;;;5076336;28;1211;-62
2024/01/30 16:32:34;;;;;;;;;;;;;;;;;;5076504;28;1227;-62
2024/01/30 16:34:59;;;;;;;;;;;;;;;;;;5076202;28;1286;-63
2024/01/30 16:37:27;;;;;;;;;;;;;;;;;;5094644;28;872;-62
2024/01/30 16:39:52;;;;;;;;;;;;;;;;;;5094512;28;824;-62
2024/01/30 16:42:18;;;;;;;;;;;;;;;;;;5093996;28;880;-62
2024/01/30 16:44:44;;;;;;;;;;;;;;;;;;5093948;28;1956;-63
2024/01/30 16:47:09;;;;;;;;;;;;;;;;;;5094200;28;809;-63
2024/01/30 16:49:34;;;;;;;;;;;;;;;;;;5094328;28;983;-63
2024/01/30 16:51:59;;;;;;;;;;;;;;;;;;5093449;28;844;-63
2024/01/30 16:54:24;;;;;;;;;;;;;;;;;;5093784;28;1006;-63
2024/01/30 16:56:50;;;;;;;;;;;;;;;;;;5093898;28;954;-63
2024/01/30 16:59:15;;;;;;;;;;;;;;;;;;5093628;28;852;-63
2024/01/30 17:01:43;;;;;;;;;;;;;;;;;;5094117;28;871;-63